Time;durP1;ratioP1;P1;durP2;ratioP2;P2;SDS_P1;SDS_P2;PMS_P1;PMS_P2;Temp;Humidity;BMP_temperature;BMP_pressure;BME280_temperature;BME280_humidity;BME280_pressure;Samples;Min_cycle;Max_cycle;Signal;HPM_P1;HPM_P2
2021/09/28 00:01:08;;;;;;;3.55;1.38;;;;;;;15.28;100.00;101169.50;4935143;29;20417;-64
2021/09/28 00:03:52;;;;;;;4.40;1.50;;;;;;;15.16;100.00;101165.34;4934994;29;20050;-64
2021/09/28 00:06:36;;;;;;;3.63;1.60;;;;;;;15.10;100.00;101171.34;4935159;29;20058;-64
2021/09/28 00:09:20;;;;;;;2.13;1.80;;;;;;;15.04;100.00;101177.31;4921400;29;20062;-63
2021/09/28 00:12:04;;;;;;;2.85;2.05;;;;;;;14.95;100.00;101178.22;4934661;29;20099;-64
2021/09/28 00:14:48;;;;;;;2.13;1.70;;;;;;;14.89;100.00;101181.50;4921900;29;20078;-64
2021/09/28 00:17:32;;;;;;;6.05;2.35;;;;;;;14.82;100.00;101172.38;4939833;29;20106;-64
2021/09/28 00:20:16;;;;;;;4.25;2.10;;;;;;;14.78;100.00;101168.28;4938742;29;20051;-64
2021/09/28 00:23:00;;;;;;;5.22;2.10;;;;;;;14.73;100.00;101162.50;4925057;29;20065;-64
2021/09/28 00:25:44;;;;;;;4.32;2.20;;;;;;;14.66;100.00;101161.41;4939772;29;20183;-64
2021/09/28 00:28:28;;;;;;;10.23;2.25;;;;;;;14.63;100.00;101167.09;4925067;29;20557;-64
2021/09/28 00:31:12;;;;;;;5.25;2.40;;;;;;;14.59;100.00;101171.06;4925019;29;20134;-64
2021/09/28 00:33:56;;;;;;;4.20;2.45;;;;;;;14.56;100.00;101171.34;4924939;29;20545;-64
2021/09/28 00:36:40;;;;;;;4.18;2.50;;;;;;;14.55;100.00;101164.28;4925170;29;20062;-64
2021/09/28 00:39:23;;;;;;;2.97;2.13;;;;;;;14.54;100.00;101174.19;4939293;29;20055;-64
2021/09/28 00:42:07;;;;;;;2.78;2.15;;;;;;;14.49;100.00;101173.78;4925373;29;20050;-64
2021/09/28 00:44:51;;;;;;;3.25;2.60;;;;;;;14.49;100.00;101173.78;4939416;29;20099;-65
2021/09/28 00:47:36;;;;;;;3.35;2.20;;;;;;;14.44;100.00;101180.56;4938159;29;20103;-64
2021/09/28 00:50:20;;;;;;;3.17;2.20;;;;;;;14.39;100.00;101185.56;4924592;29;20115;-64
2021/09/28 00:53:04;;;;;;;9.20;2.53;;;;;;;14.37;100.00;101182.19;4924890;29;20103;-64
2021/09/28 00:55:48;;;;;;;6.00;2.28;;;;;;;14.33;100.00;101186.13;4938537;29;20050;-64
2021/09/28 00:58:34;;;;;;;3.50;2.33;;;;;;;14.25;100.00;101189.53;4937959;29;20051;-64
2021/09/28 01:01:17;;;;;;;4.43;2.45;;;;;;;14.25;100.00;101200.28;4924527;29;20123;-64
2021/09/28 01:04:02;;;;;;;6.18;2.45;;;;;;;14.16;100.00;101192.22;4938080;29;20047;-65
2021/09/28 01:06:46;;;;;;;2.95;2.35;;;;;;;14.07;100.00;101203.81;4924620;29;20098;-64
2021/09/28 01:09:31;;;;;;;2.28;2.08;;;;;;;14.01;100.00;101193.66;4939020;29;20433;-64
2021/09/28 01:12:15;;;;;;;5.32;2.28;;;;;;;13.98;100.00;101196.63;4937737;29;20051;-64
2021/09/28 01:14:59;;;;;;;5.35;2.63;;;;;;;13.93;100.00;101205.09;4924480;29;20175;-64
2021/09/28 01:17:44;;;;;;;7.80;3.50;;;;;;;13.89;100.00;101209.03;4924424;29;20465;-64
2021/09/28 01:20:28;;;;;;;3.05;2.30;;;;;;;13.86;100.00;101213.88;4937782;29;20405;-64
2021/09/28 01:23:12;;;;;;;6.72;3.10;;;;;;;13.86;100.00;101219.22;4937559;29;20047;-64
2021/09/28 01:25:56;;;;;;;5.00;2.78;;;;;;;13.84;100.00;101202.41;4937763;29;20054;-65
2021/09/28 01:28:40;;;;;;;5.70;3.15;;;;;;;13.73;100.00;101210.59;4937761;29;20520;-64
2021/09/28 01:31:24;;;;;;;6.85;3.35;;;;;;;13.71;100.00;101209.91;4937368;29;20066;-64
2021/09/28 01:34:08;;;;;;;6.05;3.10;;;;;;;13.65;100.00;101223.88;4938611;29;20096;-65
2021/09/28 01:36:52;;;;;;;8.43;2.95;;;;;;;13.59;100.00;101214.59;4937277;29;20054;-64
2021/09/28 01:39:36;;;;;;;8.35;3.50;;;;;;;13.55;100.00;101198.94;4938451;29;20058;-63
2021/09/28 01:42:20;;;;;;;5.60;2.95;;;;;;;13.51;100.00;101218.94;4937242;29;20075;-64
2021/09/28 01:45:04;;;;;;;5.80;2.80;;;;;;;13.48;100.00;101211.19;4937351;29;20420;-64
2021/09/28 01:47:48;;;;;;;7.80;2.60;;;;;;;13.43;100.00;101213.41;4938350;29;20054;-64
2021/09/28 01:50:32;;;;;;;9.43;3.40;;;;;;;13.39;100.00;101215.56;4938117;29;20050;-64
2021/09/28 01:53:16;;;;;;;4.88;2.88;;;;;;;13.34;100.00;101225.00;4923760;29;20095;-64
2021/09/28 01:56:00;;;;;;;3.67;2.58;;;;;;;13.31;100.00;101225.25;4937193;29;20417;-64
2021/09/28 01:58:44;;;;;;;5.63;2.88;;;;;;;13.27;100.00;101224.66;4937169;29;20058;-64
2021/09/28 02:01:28;;;;;;;5.85;2.88;;;;;;;13.24;100.00;101233.00;4923325;29;20525;-63
2021/09/28 02:04:13;;;;;;;5.82;2.28;;;;;;;13.19;100.00;101234.38;4923240;29;20074;-64
2021/09/28 02:06:57;;;;;;;4.90;2.30;;;;;;;13.11;100.00;101235.09;4936734;29;20089;-64
2021/09/28 02:09:41;;;;;;;6.18;2.50;;;;;;;13.08;100.00;101237.19;4936519;29;20071;-64
2021/09/28 02:12:25;;;;;;;5.50;2.58;;;;;;;13.06;100.00;101226.59;4936921;29;20130;-64
2021/09/28 02:15:10;;;;;;;5.93;2.00;;;;;;;13.00;100.00;101228.97;4937583;29;20044;-64
2021/09/28 02:17:53;;;;;;;8.40;2.05;;;;;;;12.95;100.00;101231.25;4938035;29;20183;-64
2021/09/28 02:20:37;;;;;;;4.75;2.60;;;;;;;12.91;100.00;101232.44;4937678;29;20569;-64
2021/09/28 02:23:21;;;;;;;7.55;2.45;;;;;;;12.85;100.00;101219.63;4937599;29;20504;-64
2021/09/28 02:26:05;;;;;;;7.20;2.80;;;;;;;12.83;100.00;101226.94;4936652;29;20054;-64
2021/09/28 02:28:49;;;;;;;5.68;3.25;;;;;;;12.80;100.00;101224.50;4937360;29;20102;-64
2021/09/28 02:31:33;;;;;;;4.88;2.88;;;;;;;12.72;100.00;101224.34;4937471;29;20058;-64
2021/09/28 02:34:17;;;;;;;8.07;2.83;;;;;;;12.70;100.00;101233.50;4923084;29;20050;-66
2021/09/28 02:37:04;;;;;;;15.40;3.20;;;;;;;12.64;100.00;101231.34;4937227;29;20516;-66
2021/09/28 02:39:48;;;;;;;7.68;3.05;;;;;;;12.62;100.00;101227.97;4935143;29;20511;-64
2021/09/28 02:42:32;;;;;;;10.18;3.35;;;;;;;12.60;100.00;101214.72;4936348;29;20098;-64
2021/09/28 02:45:16;;;;;;;7.45;3.20;;;;;;;12.56;100.00;101213.31;4922636;29;20110;-66
2021/09/28 02:48:00;;;;;;;6.55;3.85;;;;;;;12.53;100.00;101224.28;4937248;29;20565;-67
2021/09/28 02:50:44;;;;;;;9.73;3.35;;;;;;;12.47;100.00;101224.81;4922613;29;20098;-64
2021/09/28 02:53:28;;;;;;;7.15;3.25;;;;;;;12.47;100.00;101221.25;4922960;29;20054;-64
2021/09/28 02:56:12;;;;;;;8.60;3.50;;;;;;;12.43;100.00;101225.19;4922429;29;20050;-64
2021/09/28 02:58:56;;;;;;;8.77;3.40;;;;;;;12.42;100.00;101227.03;4937064;29;20054;-64
2021/09/28 03:01:40;;;;;;;11.18;3.53;;;;;;;12.42;100.00;101221.69;4935947;29;20117;-67
2021/09/28 03:04:24;;;;;;;7.53;3.10;;;;;;;12.37;100.00;101223.91;4936587;29;20050;-66
2021/09/28 03:07:08;;;;;;;7.63;3.40;;;;;;;12.32;100.00;101233.31;4936173;29;20099;-64
2021/09/28 03:09:52;;;;;;;6.35;3.53;;;;;;;12.27;100.00;101228.34;4922216;29;20059;-64
2021/09/28 03:12:35;;;;;;;9.93;4.07;;;;;;;12.28;100.00;101235.38;4938066;29;20059;-64
2021/09/28 03:15:01;;;;;;;8.73;3.92;;;;;;;12.26;100.00;101232.00;5041750;22;20460;-69
2021/09/28 03:17:45;;;;;;;8.95;4.30;;;;;;;12.25;100.00;101226.78;4975170;28;20053;-68
2021/09/28 03:20:29;;;;;;;8.45;4.15;;;;;;;12.26;100.00;101226.66;4975183;28;20053;-68
2021/09/28 03:23:13;;;;;;;10.63;4.75;;;;;;;12.24;100.00;101230.44;4974774;28;20092;-67
2021/09/28 03:25:57;;;;;;;8.43;4.30;;;;;;;12.18;100.00;101233.66;4975000;28;20057;-68
2021/09/28 03:28:41;;;;;;;9.32;4.45;;;;;;;12.14;100.00;101230.38;4974035;28;20049;-68
2021/09/28 03:31:24;;;;;;;8.65;4.20;;;;;;;12.17;100.00;101242.66;4973719;28;20109;-68
2021/09/28 03:34:08;;;;;;;9.70;4.97;;;;;;;12.12;100.00;101240.38;4973953;28;20118;-70
2021/09/28 03:36:52;;;;;;;12.15;4.88;;;;;;;12.04;100.00;101248.19;4973657;28;20515;-68
2021/09/28 03:39:36;;;;;;;9.82;4.72;;;;;;;12.05;100.00;101236.50;4959938;28;20102;-68
2021/09/28 03:42:20;;;;;;;9.73;4.80;;;;;;;11.98;100.00;101246.00;4974855;28;20046;-69
2021/09/28 03:45:05;;;;;;;9.63;5.78;;;;;;;11.93;100.00;101256.25;4974741;28;20053;-68
2021/09/28 03:47:49;;;;;;;13.30;6.43;;;;;;;11.92;100.00;101249.22;4973787;28;20081;-70
2021/09/28 03:50:33;;;;;;;14.10;6.82;;;;;;;11.94;100.00;101247.25;4973180;28;20054;-70
2021/09/28 03:53:18;;;;;;;10.82;6.10;;;;;;;11.91;100.00;101247.53;4973684;28;20049;-67
2021/09/28 03:56:02;;;;;;;13.18;6.88;;;;;;;11.91;100.00;101246.66;4960005;28;20065;-70
2021/09/28 03:58:46;;;;;;;17.25;7.70;;;;;;;11.89;100.00;101249.47;4974004;28;20080;-69
2021/09/28 04:01:30;;;;;;;11.70;6.72;;;;;;;11.84;100.00;101257.03;4973729;28;20054;-70
2021/09/28 04:04:17;;;;;;;14.00;6.93;;;;;;;11.83;100.00;101254.47;4959609;28;20050;-69
2021/09/28 04:07:01;;;;;;;15.90;7.47;;;;;;;11.84;100.00;101259.69;4973318;28;20054;-69
2021/09/28 04:09:45;;;;;;;15.65;6.88;;;;;;;11.79;100.00;101253.88;4959635;28;20053;-69
2021/09/28 04:12:28;;;;;;;12.13;7.13;;;;;;;11.77;100.00;101257.69;4973558;28;20050;-69
2021/09/28 04:15:13;;;;;;;17.00;6.55;;;;;;;11.75;100.00;101252.44;4974225;28;20049;-69
2021/09/28 04:17:57;;;;;;;14.45;6.53;;;;;;;11.76;100.00;101248.81;4974496;28;20054;-69
2021/09/28 04:20:43;;;;;;;15.25;7.80;;;;;;;11.77;100.00;101255.00;4973519;28;20074;-69
2021/09/28 04:23:27;;;;;;;13.48;7.60;;;;;;;11.71;100.00;101267.06;4973256;28;20105;-70
2021/09/28 04:26:11;;;;;;;14.13;7.40;;;;;;;11.73;100.00;101262.44;4974479;28;20045;-69
2021/09/28 04:28:56;;;;;;;17.95;8.10;;;;;;;11.76;100.00;101259.50;4973417;28;20049;-69
2021/09/28 04:31:39;;;;;;;11.95;8.02;;;;;;;11.75;100.00;101271.16;4973671;28;20046;-69
2021/09/28 04:34:23;;;;;;;21.15;9.07;;;;;;;11.73;100.00;101273.09;4974218;28;20042;-68
2021/09/28 04:37:07;;;;;;;19.15;7.75;;;;;;;11.66;100.00;101269.25;4959737;28;20412;-69
2021/09/28 04:39:52;;;;;;;14.70;7.60;;;;;;;11.60;100.00;101277.78;4959725;28;20128;-69
2021/09/28 04:42:36;;;;;;;11.45;6.78;;;;;;;11.55;100.00;101276.41;4974405;28;20089;-68
2021/09/28 04:45:19;;;;;;;15.63;7.68;;;;;;;11.48;100.00;101281.41;4973176;28;20057;-69
2021/09/28 04:48:06;;;;;;;19.00;7.78;;;;;;;11.40;100.00;101272.31;4974282;28;20070;-69
2021/09/28 04:50:52;;;;;;;19.02;7.85;;;;;;;11.42;100.00;101268.56;4973029;28;20106;-69
2021/09/28 04:53:36;;;;;;;25.45;8.65;;;;;;;11.41;100.00;101272.22;4973446;28;20551;-69
2021/09/28 04:56:20;;;;;;;24.98;9.20;;;;;;;11.45;100.00;101286.16;4973192;28;20116;-69
2021/09/28 04:59:04;;;;;;;15.90;7.82;;;;;;;11.40;100.00;101283.00;4959355;28;20105;-69
2021/09/28 05:01:48;;;;;;;15.23;8.45;;;;;;;11.39;100.00;101282.16;4974062;28;20054;-69
2021/09/28 05:04:33;;;;;;;12.07;7.43;;;;;;;11.31;100.00;101283.75;4977284;28;20046;-69
2021/09/28 05:07:17;;;;;;;9.90;6.78;;;;;;;11.23;100.00;101286.19;4976303;28;20073;-69
2021/09/28 05:10:01;;;;;;;10.18;6.65;;;;;;;11.11;100.00;101285.38;4976518;28;20201;-69
2021/09/28 05:12:45;;;;;;;11.60;7.22;;;;;;;11.08;100.00;101292.78;4976222;28;20426;-69
2021/09/28 05:15:29;;;;;;;15.02;9.52;;;;;;;-139.48;100.00;61774.03;4977371;28;20041;-68
2021/09/28 05:18:13;;;;;;;16.75;8.10;;;;;;;-139.48;100.00;61774.03;4976020;28;20475;-69
2021/09/28 05:20:56;;;;;;;14.48;6.68;;;;;;;-139.48;100.00;61774.03;4977245;28;20081;-69
2021/09/28 05:23:46;;;;;;;13.95;8.45;;;;;;;-139.48;100.00;61774.03;4975935;28;20057;-69
2021/09/28 05:26:31;;;;;;;21.25;7.40;;;;;;;-139.48;100.00;61774.03;4976071;28;20085;-69
2021/09/28 05:29:15;;;;;;;12.80;7.85;;;;;;;-139.48;100.00;61774.03;4975877;28;20053;-69
2021/09/28 05:31:59;;;;;;;9.65;7.28;;;;;;;-139.48;100.00;61774.03;4976158;28;20564;-68
2021/09/28 05:34:42;;;;;;;12.70;7.47;;;;;;;-139.48;100.00;61774.03;4975703;28;20138;-69
2021/09/28 05:37:26;;;;;;;11.68;6.70;;;;;;;-139.48;100.00;61774.03;4976061;28;20097;-69
2021/09/28 05:40:11;;;;;;;11.40;7.05;;;;;;;-139.48;100.00;61774.03;4975699;28;20053;-69
2021/09/28 05:42:55;;;;;;;18.02;8.05;;;;;;;-139.48;100.00;61774.03;4975646;28;20416;-70
2021/09/28 05:45:38;;;;;;;15.77;7.97;;;;;;;-139.48;100.00;61774.03;4962542;28;20094;-69
2021/09/28 05:48:22;;;;;;;19.70;8.98;;;;;;;-139.48;100.00;61774.03;4962086;28;20407;-69
2021/09/28 05:51:20;;;;;;;14.68;8.90;;;;;;;-139.48;100.00;61774.03;4976713;28;20468;-69
2021/09/28 05:54:07;;;;;;;14.57;7.05;;;;;;;-139.48;100.00;61774.03;4976335;28;20105;-69
2021/09/28 05:56:52;;;;;;;15.07;7.53;;;;;;;-139.48;100.00;61774.03;4975407;28;20053;-69
2021/09/28 05:59:36;;;;;;;14.93;7.50;;;;;;;-139.48;100.00;61774.03;4976589;28;20050;-69
2021/09/28 06:02:20;;;;;;;20.35;8.73;;;;;;;-139.48;100.00;61774.03;4976352;28;20053;-69
2021/09/28 06:05:04;;;;;;;9.60;6.43;;;;;;;-139.48;100.00;61774.03;4975470;28;20138;-69
2021/09/28 06:07:48;;;;;;;12.02;6.53;;;;;;;-139.48;100.00;61774.03;4975487;28;20054;-70
2021/09/28 06:10:32;;;;;;;9.90;6.50;;;;;;;-139.48;100.00;61774.03;4975384;28;20150;-70
2021/09/28 06:13:16;;;;;;;15.07;7.82;;;;;;;-139.48;100.00;61774.03;4974950;28;20145;-68
2021/09/28 06:16:00;;;;;;;13.98;7.47;;;;;;;-139.48;100.00;61774.03;4961701;28;20162;-70
2021/09/28 06:18:44;;;;;;;9.63;5.95;;;;;;;-139.48;100.00;61774.03;4975080;28;20478;-70
2021/09/28 06:21:28;;;;;;;16.58;7.03;;;;;;;-139.48;100.00;61774.03;4975261;28;20416;-70
2021/09/28 06:24:12;;;;;;;15.18;7.95;;;;;;;-139.48;100.00;61774.03;4975046;28;20049;-69
2021/09/28 06:26:57;;;;;;;10.27;6.65;;;;;;;-139.48;100.00;61774.03;4974924;28;20106;-70
2021/09/28 06:29:41;;;;;;;12.55;6.72;;;;;;;-139.48;100.00;61774.03;4976042;28;20526;-69
2021/09/28 06:32:25;;;;;;;11.93;7.28;;;;;;;-139.48;100.00;61774.03;4975019;28;20080;-69
2021/09/28 06:35:09;;;;;;;10.43;6.45;;;;;;;-139.48;100.00;61774.03;4975638;28;20049;-70
2021/09/28 06:37:54;;;;;;;10.27;6.35;;;;;;;-139.48;100.00;61774.03;4974914;28;20098;-69
2021/09/28 06:40:38;;;;;;;11.32;7.03;;;;;;;-139.48;100.00;61774.03;4975569;28;20142;-69
2021/09/28 06:43:22;;;;;;;12.77;6.90;;;;;;;-139.48;100.00;61774.03;4975795;28;20117;-70
2021/09/28 06:46:06;;;;;;;14.15;6.43;;;;;;;-139.48;100.00;61774.03;4974752;28;20050;-69
2021/09/28 06:48:50;;;;;;;13.73;7.13;;;;;;;-139.48;100.00;61774.03;4974447;28;20077;-69
2021/09/28 06:51:33;;;;;;;13.07;7.53;;;;;;;-139.48;100.00;61774.03;4974635;28;20101;-69
2021/09/28 06:54:18;;;;;;;14.88;7.22;;;;;;;-139.48;100.00;61774.03;4974606;28;20558;-69
2021/09/28 06:57:01;;;;;;;14.07;7.85;;;;;;;-139.48;100.00;61774.03;4960910;28;20109;-69
2021/09/28 06:59:45;;;;;;;10.25;7.05;;;;;;;-139.48;100.00;61774.03;4975500;28;20053;-69
2021/09/28 07:02:29;;;;;;;14.00;7.38;;;;;;;-139.48;100.00;61774.03;4975120;28;20069;-70
2021/09/28 07:05:14;;;;;;;17.02;7.47;;;;;;;-139.48;100.00;61774.03;4960700;28;20146;-68
2021/09/28 07:07:58;;;;;;;13.13;7.75;;;;;;;-139.48;100.00;61774.03;4975338;28;20054;-69
2021/09/28 07:10:43;;;;;;;13.60;6.72;;;;;;;-139.48;100.00;61774.03;4974238;28;20518;-69
2021/09/28 07:13:27;;;;;;;17.40;6.95;;;;;;;-139.48;100.00;61774.03;4973789;28;20424;-69
2021/09/28 07:16:11;;;;;;;15.63;6.53;;;;;;;-139.48;100.00;61774.03;4975457;28;20434;-69
2021/09/28 07:18:55;;;;;;;11.13;6.53;;;;;;;-139.48;100.00;61774.03;4975071;28;20418;-69
2021/09/28 07:21:39;;;;;;;13.43;7.10;;;;;;;-139.48;100.00;61774.03;4974182;28;20105;-69
2021/09/28 07:24:22;;;;;;;11.20;7.18;;;;;;;-139.48;100.00;61774.03;4973671;28;20050;-69
2021/09/28 07:27:06;;;;;;;11.50;6.70;;;;;;;-139.48;100.00;61774.03;4973590;28;20134;-69
2021/09/28 07:29:50;;;;;;;14.60;6.32;;;;;;;-139.48;100.00;61774.03;4975034;28;20053;-69
2021/09/28 07:32:35;;;;;;;;;;;;;;;-139.48;100.00;61774.03;4975229;28;20404;-70
2021/09/28 07:35:19;;;;;;;14.75;6.93;;;;;;;-139.48;100.00;61774.03;4960288;28;19921;-69
2021/09/28 07:38:03;;;;;;;16.80;6.57;;;;;;;-139.48;100.00;61774.03;4973836;28;20097;-69
2021/09/28 07:40:49;;;;;;;9.63;6.30;;;;;;;-139.48;100.00;61774.03;4973918;28;20050;-68
2021/09/28 07:43:32;;;;;;;10.85;6.40;;;;;;;-139.48;100.00;61774.03;4959922;28;20050;-70
2021/09/28 07:46:16;;;;;;;11.63;6.53;;;;;;;-139.48;100.00;61774.03;4959766;28;20125;-69
2021/09/28 07:49:00;;;;;;;13.20;6.80;;;;;;;-139.48;100.00;61774.03;4960005;28;20070;-69
2021/09/28 07:51:44;;;;;;;14.98;7.55;;;;;;;-139.48;100.00;61774.03;4973727;28;20058;-69
2021/09/28 07:54:27;;;;;;;14.10;6.93;;;;;;;-139.48;100.00;61774.03;4973685;28;20042;-69
2021/09/28 07:57:12;;;;;;;11.02;7.18;;;;;;;-139.48;100.00;61774.03;4974362;28;20054;-70
2021/09/28 07:59:55;;;;;;;10.45;5.72;;;;;;;-139.48;100.00;61774.03;4973902;28;20058;-70
2021/09/28 08:02:40;;;;;;;10.60;5.50;;;;;;;-139.48;100.00;61774.03;4973262;28;20057;-70
2021/09/28 08:05:25;;;;;;;11.10;5.55;;;;;;;-139.48;100.00;61774.03;4973513;28;20058;-70
2021/09/28 08:08:09;;;;;;;9.75;5.30;;;;;;;-139.48;100.00;61774.03;4973585;28;20057;-70
2021/09/28 08:10:53;;;;;;;11.35;5.07;;;;;;;-139.48;100.00;61774.03;4973553;28;20085;-69
2021/09/28 08:13:37;;;;;;;9.48;5.28;;;;;;;-139.48;100.00;61774.03;4974088;28;20081;-69
2021/09/28 08:16:21;;;;;;;10.10;5.50;;;;;;;-139.48;100.00;61774.03;4959774;28;20057;-69
2021/09/28 08:19:05;;;;;;;12.63;5.70;;;;;;;-139.48;100.00;61774.03;4973155;28;20053;-69
2021/09/28 08:21:49;;;;;;;9.40;5.13;;;;;;;-139.48;100.00;61774.03;4973443;28;20053;-69
2021/09/28 08:24:39;;;;;;;9.75;4.70;;;;;;;-139.48;100.00;61774.03;4973178;28;20569;-69
2021/09/28 08:30:27;;;;;;;10.88;4.88;;;;;;;-139.48;100.00;61774.03;4974311;28;20125;-69
2021/09/28 08:33:10;;;;;;;7.07;4.90;;;;;;;-139.48;100.00;61774.03;4959813;28;20141;-69
2021/09/28 08:35:54;;;;;;;8.52;5.10;;;;;;;-139.48;100.00;61774.03;4959464;28;20042;-69
2021/09/28 08:38:38;;;;;;;10.10;5.03;;;;;;;-139.48;100.00;61774.03;4962202;28;20101;-69
2021/09/28 08:41:23;;;;;;;13.60;5.60;;;;;;;-139.48;100.00;61774.03;4976782;28;20057;-67
2021/09/28 08:44:07;;;;;;;6.20;3.83;;;;;;;-139.48;100.00;61774.03;4976750;28;20082;-69
2021/09/28 08:46:51;;;;;;;6.22;4.75;;;;;;;-139.48;100.00;61774.03;4976653;28;20511;-69
2021/09/28 08:49:35;;;;;;;10.63;4.93;;;;;;;-139.48;100.00;61774.03;4976853;28;20053;-69
2021/09/28 08:52:19;;;;;;;7.30;4.40;;;;;;;-139.48;100.00;61774.03;4977815;28;20503;-69
2021/09/28 08:55:03;;;;;;;10.63;4.57;;;;;;;-139.48;100.00;61774.03;4963021;28;20112;-69
2021/09/28 08:57:48;;;;;;;11.32;6.05;;;;;;;-139.48;100.00;61774.03;4963140;28;20086;-69
2021/09/28 09:00:32;;;;;;;9.50;6.28;;;;;;;-139.48;100.00;61774.03;4963003;28;20053;-69
2021/09/28 09:03:31;;;;;;;11.73;6.65;;;;;;;-139.48;100.00;61774.03;4976438;28;20069;-69
2021/09/28 09:06:15;;;;;;;47.28;17.48;;;;;;;-139.48;100.00;61774.03;4963186;28;20144;-69
2021/09/28 09:09:02;;;;;;;9.90;6.47;;;;;;;-139.48;100.00;61774.03;4962841;28;20128;-69
2021/09/28 09:11:48;;;;;;;10.88;6.25;;;;;;;-139.48;100.00;61774.03;4976153;28;20053;-69
2021/09/28 09:14:32;;;;;;;11.88;7.55;;;;;;;-139.48;100.00;61774.03;5019060;23;20105;-67
2021/09/28 09:17:24;;;;;;;14.50;7.63;;;;;;;-139.48;100.00;61774.03;4976691;28;20073;-67
2021/09/28 09:20:30;;;;;;;11.60;8.07;;;;;;;-139.48;100.00;61774.03;4976035;28;20105;-68
2021/09/28 09:23:24;;;;;;;10.45;7.22;;;;;;;-139.48;100.00;61774.03;4976020;28;20188;-68
2021/09/28 09:26:20;;;;;;;10.82;6.75;;;;;;;-139.48;100.00;61774.03;4943274;29;20124;-68
2021/09/28 09:29:07;;;;;;;10.95;6.47;;;;;;;-139.48;100.00;61774.03;4943080;29;20098;-68
2021/09/28 09:31:54;;;;;;;9.75;6.30;;;;;;;-139.48;100.00;61774.03;4957457;29;20105;-68
2021/09/28 09:34:38;;;;;;;7.78;6.13;;;;;;;-139.48;100.00;61774.03;4956523;29;20090;-67
2021/09/28 09:37:22;;;;;;;;;;;;;;;-139.48;100.00;61774.03;4957261;29;20519;-68
2021/09/28 09:40:06;;;;;;;8.65;6.43;;;;;;;-139.48;100.00;61774.03;4943136;29;19922;-68
2021/09/28 09:42:54;;;;;;;12.82;10.50;;;;;;;-139.48;100.00;61774.03;4956624;29;20093;-68
2021/09/28 09:45:38;;;;;;;9.50;6.85;;;;;;;-139.48;100.00;61774.03;4942813;29;20055;-68
2021/09/28 09:48:23;;;;;;;6.95;6.25;;;;;;;-139.48;100.00;61774.03;4957057;28;20098;-68
2021/09/28 09:51:09;;;;;;;9.90;6.45;;;;;;;-139.48;100.00;61774.03;4956711;29;20089;-68
2021/09/28 09:53:59;;;;;;;8.15;5.80;;;;;;;-139.48;100.00;61774.03;4956315;29;20077;-68
2021/09/28 09:56:51;;;;;;;10.30;5.57;;;;;;;-139.48;100.00;61774.03;4956257;29;20415;-68
2021/09/28 09:59:36;;;;;;;9.98;5.75;;;;;;;-139.48;100.00;61774.03;4957406;29;20487;-67
2021/09/28 10:02:20;;;;;;;10.32;5.63;;;;;;;-139.48;100.00;61774.03;4929254;29;20509;-68
2021/09/28 10:05:04;;;;;;;;;;;;;;;-139.48;100.00;61774.03;4956214;29;20472;-68
2021/09/28 10:07:49;;;;;;;7.32;4.70;;;;;;;-139.48;100.00;61774.03;4942479;29;19973;-68
2021/09/28 10:10:33;;;;;;;6.70;3.88;;;;;;;-139.48;100.00;61774.03;4929276;29;20058;-68
2021/09/28 10:13:36;;;;;;;;;;;;;;;-139.48;100.00;61774.03;4957609;29;20050;-68
2021/09/28 10:16:38;;;;;;;11.48;3.95;;;;;;;-139.48;100.00;61774.03;4956764;29;19921;-68
2021/09/28 10:19:43;;;;;;;7.60;3.90;;;;;;;-139.48;100.00;61774.03;4956996;29;20062;-68
2021/09/28 10:22:33;;;;;;;8.85;3.78;;;;;;;-139.48;100.00;61774.03;4942432;29;20520;-68
2021/09/28 10:25:20;;;;;;;8.40;3.10;;;;;;;-139.48;100.00;61774.03;4942048;29;20093;-68
2021/09/28 10:28:04;;;;;;;7.50;2.78;;;;;;;-139.48;100.00;61774.03;4956828;29;20070;-68
2021/09/28 10:30:48;;;;;;;5.70;3.03;;;;;;;-139.48;100.00;61774.03;4956731;29;20070;-68
2021/09/28 10:33:33;;;;;;;10.95;3.00;;;;;;;-139.48;100.00;61774.03;4956519;29;20421;-68
2021/09/28 10:36:22;;;;;;;6.47;2.83;;;;;;;-139.48;100.00;61774.03;4956664;29;20058;-68
2021/09/28 10:39:06;;;;;;;6.53;2.58;;;;;;;-139.48;100.00;61774.03;4942171;29;20412;-68
2021/09/28 10:41:52;;;;;;;6.78;2.45;;;;;;;-139.48;100.00;61774.03;4956329;29;20420;-68
2021/09/28 10:44:43;;;;;;;6.45;2.45;;;;;;;-139.48;100.00;61774.03;4955524;29;20129;-68
2021/09/28 10:47:52;;;;;;;5.50;2.40;;;;;;;-139.48;100.00;61774.03;4956434;29;20046;-67
2021/09/28 10:50:41;;;;;;;4.70;2.22;;;;;;;-139.48;100.00;61774.03;4941725;29;20468;-68
2021/09/28 10:53:25;;;;;;;6.07;2.35;;;;;;;-139.48;100.00;61774.03;4941728;29;20054;-68
2021/09/28 10:56:14;;;;;;;6.72;2.47;;;;;;;-139.48;100.00;61774.03;4956290;29;20102;-68
2021/09/28 10:59:01;;;;;;;6.63;2.70;;;;;;;-139.48;100.00;61774.03;4955108;29;20535;-65
2021/09/28 11:02:08;;;;;;;6.00;2.72;;;;;;;-139.48;100.00;61774.03;4927593;29;20134;-67
2021/09/28 11:05:36;;;;;;;9.90;2.10;;;;;;;-139.48;100.00;61774.03;4954943;29;20515;-68
2021/09/28 11:08:22;;;;;;;5.80;2.60;;;;;;;-139.48;100.00;61774.03;4928307;29;20154;-68
2021/09/28 11:11:07;;;;;;;7.13;2.45;;;;;;;-139.48;100.00;61774.03;4941736;29;20050;-67
2021/09/28 11:13:59;;;;;;;4.97;2.78;;;;;;;-139.48;100.00;61774.03;4954757;29;20046;-68
2021/09/28 11:16:47;;;;;;;5.55;2.10;;;;;;;-139.48;100.00;61774.03;4941225;29;20066;-68
2021/09/28 11:19:35;;;;;;;4.97;2.22;;;;;;;-139.48;100.00;61774.03;4954938;29;20133;-67
2021/09/28 11:22:22;;;;;;;4.53;2.17;;;;;;;-139.48;100.00;61774.03;4955940;29;20125;-68
2021/09/28 11:25:13;;;;;;;5.57;2.22;;;;;;;-139.48;100.00;61774.03;4954660;29;20133;-68
2021/09/28 11:28:15;;;;;;;5.95;2.08;;;;;;;-139.48;100.00;61774.03;4954966;29;20097;-69
2021/09/28 11:31:05;;;;;;;3.40;1.88;;;;;;;-139.48;100.00;61774.03;4941181;29;20130;-68
2021/09/28 11:33:48;;;;;;;5.43;1.92;;;;;;;-139.48;100.00;61774.03;4940816;29;20097;-68
2021/09/28 11:36:35;;;;;;;5.07;2.10;;;;;;;-139.48;100.00;61774.03;4954652;29;20109;-68
2021/09/28 11:39:19;;;;;;;6.20;1.75;;;;;;;-139.48;100.00;61774.03;4940837;29;20535;-69
2021/09/28 11:42:04;;;;;;;12.05;1.60;;;;;;;-139.48;100.00;61774.03;4954796;29;20552;-68
2021/09/28 11:44:50;;;;;;;2.97;1.30;;;;;;;-139.48;100.00;61774.03;4954183;29;20050;-68
2021/09/28 11:47:40;;;;;;;6.07;1.75;;;;;;;-139.48;100.00;61774.03;4954390;29;20089;-68
2021/09/28 11:50:24;;;;;;;3.40;1.73;;;;;;;-139.48;100.00;61774.03;4954419;29;20049;-68
2021/09/28 11:53:09;;;;;;;5.72;1.40;;;;;;;-139.48;100.00;61774.03;4954181;29;20046;-68
2021/09/28 11:55:52;;;;;;;3.10;1.73;;;;;;;-139.48;100.00;61774.03;4954379;29;20054;-69
2021/09/28 11:58:38;;;;;;;4.93;1.67;;;;;;;-139.48;100.00;61774.03;4954267;29;20130;-69
2021/09/28 12:01:27;;;;;;;5.18;1.92;;;;;;;-139.48;100.00;61774.03;4954323;29;20094;-68
2021/09/28 12:10:16;;;;;;;5.13;1.70;;;;;;;-139.48;100.00;61774.03;4943335;29;20058;-68
2021/09/28 12:13:20;;;;;;;3.92;1.60;;;;;;;-139.48;100.00;61774.03;4956954;28;20050;-69
2021/09/28 12:16:10;;;;;;;8.93;2.03;;;;;;;-139.48;100.00;61774.03;4944109;29;20058;-68
2021/09/28 12:19:05;;;;;;;6.53;2.40;;;;;;;-139.48;100.00;61774.03;4958074;29;20126;-69
2021/09/28 12:21:49;;;;;;;5.45;1.63;;;;;;;-139.48;100.00;61774.03;4944178;29;20070;-68
2021/09/28 12:24:49;;;;;;;4.82;1.83;;;;;;;-139.48;100.00;61774.03;4958677;29;20105;-68
2021/09/28 12:27:33;;;;;;;6.03;1.77;;;;;;;-139.48;100.00;61774.03;4958954;29;20055;-68
2021/09/28 12:30:17;;;;;;;4.32;1.88;;;;;;;-139.48;100.00;61774.03;4957860;29;20073;-68
2021/09/28 12:33:05;;;;;;;4.45;1.85;;;;;;;-139.48;100.00;61774.03;4957538;29;20460;-68
2021/09/28 12:35:54;;;;;;;4.05;1.73;;;;;;;-139.48;100.00;61774.03;4957413;29;20575;-68
2021/09/28 12:38:38;;;;;;;4.57;1.90;;;;;;;-139.48;100.00;61774.03;4944001;29;20053;-68
2021/09/28 12:41:22;;;;;;;4.70;1.80;;;;;;;-139.48;100.00;61774.03;4957109;29;20069;-68